createdAt,value
2022-09-20T00:01:30.088Z,60.00
2022-09-20T00:03:58.873Z,60.20
2022-09-20T00:06:28.542Z,60.30
2022-09-20T00:08:56.680Z,60.30
2022-09-20T00:11:29.112Z,60.30
2022-09-20T00:13:58.259Z,60.40
2022-09-20T00:16:31.659Z,60.40
2022-09-20T00:19:00.144Z,60.40
2022-09-20T00:21:29.072Z,60.30
2022-09-20T00:23:57.859Z,60.20
2022-09-20T00:26:26.546Z,60.20
2022-09-20T00:28:53.680Z,59.80
2022-09-20T00:31:20.872Z,60.00
2022-09-20T00:34:06.374Z,60.20
2022-09-20T00:36:33.305Z,60.40
2022-09-20T00:39:02.123Z,60.30
2022-09-20T00:41:31.033Z,60.30
2022-09-20T00:43:58.792Z,60.30
2022-09-20T00:46:37.990Z,60.40
2022-09-20T00:49:14.747Z,60.20
2022-09-20T00:51:45.790Z,60.00
2022-09-20T00:54:19.496Z,59.90
2022-09-20T00:56:47.447Z,60.20
2022-09-20T00:59:34.889Z,60.20
2022-09-20T01:02:18.941Z,60.50
2022-09-20T01:04:48.084Z,60.50
2022-09-20T01:07:18.426Z,60.50
2022-09-20T01:09:45.365Z,60.30
2022-09-20T01:12:17.912Z,60.10
2022-09-20T01:14:47.535Z,60.00
2022-09-20T01:17:15.076Z,59.70
2022-09-20T01:20:15.663Z,59.80
2022-09-20T01:23:08.832Z,60.10
2022-09-20T01:26:06.755Z,60.10
2022-09-20T01:28:34.428Z,60.10
2022-09-20T01:31:13.235Z,60.10
2022-09-20T01:34:01.994Z,60.10
2022-09-20T01:36:53.905Z,60.00
2022-09-20T01:39:29.792Z,59.90
2022-09-20T01:42:05.517Z,59.70
2022-09-20T01:44:44.567Z,60.10
2022-09-20T01:47:19.718Z,60.00
2022-09-20T01:49:57.483Z,60.00
2022-09-20T01:52:36.585Z,60.10
2022-09-20T01:55:41.848Z,60.20
2022-09-20T01:58:32.863Z,59.90
2022-09-20T02:01:17.723Z,60.00
2022-09-20T02:04:22.211Z,60.00
2022-09-20T02:07:08.122Z,60.10
2022-09-20T02:09:57.037Z,60.30
2022-09-20T02:12:52.166Z,60.10
2022-09-20T02:15:38.773Z,60.40
2022-09-20T02:18:28.862Z,60.40
2022-09-20T02:21:14.136Z,60.60
2022-09-20T02:24:03.648Z,60.50
2022-09-20T02:26:38.361Z,60.60
2022-09-20T02:29:23.054Z,61.30
2022-09-20T02:32:04.367Z,60.70
2022-09-20T02:34:37.224Z,60.40
2022-09-20T02:37:25.764Z,60.50
2022-09-20T02:40:31.101Z,60.70
2022-09-20T02:43:14.637Z,60.70
2022-09-20T02:45:54.790Z,60.80
2022-09-20T02:48:31.886Z,60.90
2022-09-20T02:51:40.751Z,61.00
2022-09-20T02:54:35.854Z,61.10
2022-09-20T02:57:25.876Z,61.00
2022-09-20T03:00:05.210Z,61.20
2022-09-20T03:02:55.055Z,61.10
2022-09-20T03:05:58.592Z,61.00
2022-09-20T03:08:45.428Z,60.80
2022-09-20T03:11:29.413Z,60.70
2022-09-20T03:14:22.910Z,60.90
2022-09-20T03:17:00.068Z,60.70
2022-09-20T03:19:35.982Z,60.90
2022-09-20T03:22:16.691Z,61.00
2022-09-20T03:25:16.324Z,61.00
2022-09-20T03:28:38.300Z,61.10
2022-09-20T03:31:05.052Z,61.00
2022-09-20T03:33:46.956Z,61.00
2022-09-20T03:36:54.769Z,61.00
2022-09-20T03:39:58.943Z,61.20
2022-09-20T03:42:29.148Z,61.20
2022-09-20T03:45:19.941Z,61.10
2022-09-20T03:48:22.161Z,61.20
2022-09-20T03:51:20.479Z,61.10
2022-09-20T03:54:09.859Z,61.20
2022-09-20T03:56:59.048Z,61.20
2022-09-20T03:59:47.963Z,61.30
2022-09-20T04:02:32.987Z,61.30
2022-09-20T04:05:02.858Z,61.40
2022-09-20T04:07:41.620Z,61.30
2022-09-20T04:10:35.815Z,61.40
2022-09-20T04:13:27.368Z,61.60
2022-09-20T04:16:13.051Z,61.50
2022-09-20T04:18:57.126Z,61.50
2022-09-20T04:21:35.043Z,61.50
2022-09-20T04:24:23.720Z,61.50
2022-09-20T04:27:17.774Z,61.60
2022-09-20T04:29:53.204Z,61.70
2022-09-20T04:32:31.809Z,61.70
2022-09-20T04:35:22.128Z,61.70
2022-09-20T04:37:51.847Z,62.50
2022-09-20T04:40:43.322Z,61.70
2022-09-20T04:43:37.776Z,61.70
2022-09-20T04:46:35.833Z,61.70
2022-09-20T04:49:33.738Z,61.70
2022-09-20T04:52:13.031Z,61.60
2022-09-20T04:54:54.903Z,61.50
2022-09-20T04:58:00.463Z,61.30
2022-09-20T05:00:57.735Z,61.40
2022-09-20T05:03:58.504Z,61.30
2022-09-20T05:06:31.136Z,61.30
2022-09-20T05:09:32.603Z,61.20
2022-09-20T05:12:34.386Z,61.50
2022-09-20T05:15:43.420Z,61.50
2022-09-20T05:18:45.080Z,61.70
2022-09-20T05:21:53.190Z,61.70
2022-09-20T05:24:38.738Z,61.60
2022-09-20T05:27:25.167Z,61.60
2022-09-20T05:30:04.918Z,61.50
2022-09-20T05:32:44.059Z,61.50
2022-09-20T05:35:13.894Z,61.60
2022-09-20T05:38:20.395Z,61.50
2022-09-20T05:41:19.350Z,61.40
2022-09-20T05:44:13.427Z,61.40
2022-09-20T05:46:59.100Z,61.10
2022-09-20T05:49:34.844Z,61.10
2022-09-20T05:52:46.489Z,60.90
2022-09-20T05:55:28.545Z,61.10
2022-09-20T05:58:34.466Z,61.00
2022-09-20T06:01:11.226Z,61.20
2022-09-20T06:04:08.248Z,61.00
2022-09-20T06:07:03.554Z,61.10
2022-09-20T06:09:56.711Z,61.20
2022-09-20T06:12:26.464Z,61.30
2022-09-20T06:15:01.995Z,61.40
2022-09-20T06:17:46.524Z,61.60
2022-09-20T06:20:54.221Z,61.50
2022-09-20T06:23:22.075Z,61.60
2022-09-20T06:25:56.086Z,61.70
2022-09-20T06:28:56.376Z,61.70
2022-09-20T06:31:25.747Z,61.70
2022-09-20T06:34:04.493Z,61.60
2022-09-20T06:36:52.321Z,61.70
2022-09-20T06:40:30.251Z,61.70
2022-09-20T06:43:00.256Z,61.60
2022-09-20T06:45:27.207Z,61.10
2022-09-20T06:47:53.932Z,61.20
2022-09-20T06:50:20.879Z,61.20
2022-09-20T06:52:47.671Z,61.00
2022-09-20T06:55:27.227Z,60.80
2022-09-20T06:57:55.806Z,61.50
2022-09-20T07:00:22.692Z,60.80
2022-09-20T07:02:49.550Z,61.00
2022-09-20T07:05:18.037Z,60.90
2022-09-20T07:07:45.253Z,60.90
2022-09-20T07:10:12.278Z,60.80
2022-09-20T07:12:39.184Z,60.70
2022-09-20T07:15:07.267Z,60.60
2022-09-20T07:17:34.248Z,60.50
2022-09-20T07:20:01.117Z,60.60
2022-09-20T07:22:28.240Z,60.60
2022-09-20T07:24:55.203Z,60.50
2022-09-20T07:27:22.006Z,60.50
2022-09-20T07:29:49.033Z,60.60
2022-09-20T07:32:17.197Z,60.60
2022-09-20T07:34:44.480Z,60.20
2022-09-20T07:37:12.135Z,59.20
2022-09-20T07:39:38.978Z,58.70
2022-09-20T07:42:08.740Z,58.20
2022-09-20T07:44:35.684Z,58.10
2022-09-20T07:47:02.620Z,58.10
2022-09-20T07:49:32.269Z,58.30
2022-09-20T07:51:59.341Z,58.20
2022-09-20T07:54:27.579Z,58.30
2022-09-20T07:56:54.744Z,57.90
2022-09-20T07:59:21.992Z,58.50
2022-09-20T08:01:48.916Z,58.60
2022-09-20T08:04:15.798Z,58.40
2022-09-20T08:06:44.945Z,58.40
2022-09-20T08:09:13.130Z,58.00
2022-09-20T08:11:42.814Z,57.30
2022-09-20T08:14:15.182Z,57.10
2022-09-20T08:16:47.601Z,57.80
2022-09-20T08:19:23.274Z,58.10
2022-09-20T08:21:51.612Z,57.90
2022-09-20T08:24:21.038Z,57.60
2022-09-20T08:26:48.731Z,57.10
2022-09-20T08:29:18.287Z,57.10
2022-09-20T08:31:50.760Z,57.10
2022-09-20T08:34:18.356Z,56.30
2022-09-20T08:36:47.256Z,56.40
2022-09-20T08:42:24.008Z,56.00
2022-09-20T08:45:22.249Z,56.20
2022-09-20T08:48:00.473Z,56.40
2022-09-20T08:50:34.978Z,56.50
2022-09-20T08:53:07.836Z,56.60
2022-09-20T08:55:40.044Z,56.60
2022-09-20T08:58:10.861Z,55.80
2022-09-20T09:00:39.693Z,55.70
2022-09-20T09:03:11.999Z,55.30
2022-09-20T09:05:58.126Z,55.10
2022-09-20T09:08:37.626Z,56.20
2022-09-20T09:11:09.555Z,56.70
2022-09-20T09:13:57.482Z,57.00
2022-09-20T09:16:34.613Z,58.00
2022-09-20T09:19:33.310Z,58.00
2022-09-20T09:22:05.624Z,56.80
2022-09-20T09:24:33.054Z,55.00
2022-09-20T09:27:17.498Z,54.70
2022-09-20T09:29:55.707Z,51.50
2022-09-20T09:32:32.680Z,51.40
2022-09-20T09:35:31.609Z,52.00
2022-09-20T09:38:01.081Z,51.90
2022-09-20T09:40:29.600Z,52.80
2022-09-20T09:42:59.825Z,51.50
2022-09-20T09:45:38.936Z,52.10
2022-09-20T09:48:30.625Z,51.00
2022-09-20T09:51:15.563Z,50.30
2022-09-20T09:53:47.454Z,49.70
2022-09-20T09:56:44.038Z,50.00
2022-09-20T09:59:32.886Z,50.10
2022-09-20T10:02:29.274Z,50.00
2022-09-20T10:05:05.079Z,49.60
2022-09-20T10:08:07.192Z,49.00
2022-09-20T10:10:41.670Z,48.50
2022-09-20T10:13:15.081Z,50.10
2022-09-20T10:15:55.039Z,50.10
2022-09-20T10:18:47.167Z,52.30
2022-09-20T10:21:43.604Z,52.80
2022-09-20T10:24:31.004Z,53.80
2022-09-20T10:27:26.165Z,54.10
2022-09-20T10:30:04.352Z,53.90
2022-09-20T10:33:15.741Z,54.00
2022-09-20T10:36:12.588Z,54.30
2022-09-20T10:39:10.623Z,54.10
2022-09-20T10:42:02.280Z,53.50
2022-09-20T10:44:57.649Z,51.30
2022-09-20T10:47:42.259Z,50.20
2022-09-20T10:50:36.714Z,50.10
2022-09-20T10:53:23.030Z,49.00
2022-09-20T10:56:18.415Z,47.10
2022-09-20T10:58:48.300Z,47.70
2022-09-20T11:01:24.347Z,47.30
2022-09-20T11:04:18.384Z,46.90
2022-09-20T11:07:07.559Z,46.30
2022-09-20T11:09:40.694Z,48.40
2022-09-20T11:12:39.541Z,45.40
2022-09-20T11:15:22.903Z,45.10
2022-09-20T11:18:09.953Z,47.20
2022-09-20T11:20:46.703Z,48.20
2022-09-20T11:23:25.351Z,47.50
2022-09-20T11:25:56.990Z,45.80
2022-09-20T11:28:39.263Z,46.30
2022-09-20T11:31:22.225Z,47.10
2022-09-20T11:33:53.894Z,47.60
2022-09-20T11:36:58.957Z,45.50
2022-09-20T11:39:44.471Z,45.80
2022-09-20T11:42:26.424Z,46.00
2022-09-20T11:44:54.892Z,44.50
2022-09-20T11:47:52.750Z,43.20
2022-09-20T11:50:51.279Z,44.40
2022-09-20T11:53:52.353Z,43.80
2022-09-20T11:56:39.944Z,45.50
2022-09-20T11:59:40.373Z,44.70
2022-09-20T12:02:45.031Z,45.50
2022-09-20T12:05:33.896Z,45.60
2022-09-20T12:08:03.974Z,45.30
2022-09-20T12:10:39.336Z,45.20
2022-09-20T12:13:18.457Z,43.90
2022-09-20T12:15:45.463Z,43.60
2022-09-20T12:18:49.204Z,36.60
2022-09-20T12:21:18.570Z,34.30
2022-09-20T12:24:00.420Z,34.60
2022-09-20T12:26:27.144Z,36.90
2022-09-20T12:28:56.609Z,37.50
2022-09-20T12:31:38.514Z,38.30
2022-09-20T12:34:05.271Z,39.60
2022-09-20T12:36:38.373Z,41.50
2022-09-20T12:39:11.366Z,41.60
2022-09-20T12:41:57.832Z,41.70
2022-09-20T12:44:43.758Z,42.40
2022-09-20T12:47:10.629Z,41.80
2022-09-20T12:50:06.624Z,42.70
2022-09-20T12:52:58.359Z,40.90
2022-09-20T12:55:51.616Z,41.00
2022-09-20T12:58:23.026Z,40.60
2022-09-20T13:00:50.011Z,41.10
2022-09-20T13:03:40.423Z,41.20
2022-09-20T13:06:07.249Z,41.00
2022-09-20T13:08:43.305Z,39.90
2022-09-20T13:11:21.096Z,39.50
2022-09-20T13:13:58.580Z,41.40
2022-09-20T13:16:51.452Z,41.30
2022-09-20T13:19:21.011Z,40.90
2022-09-20T13:21:57.727Z,41.70
2022-09-20T13:24:26.413Z,42.50
2022-09-20T13:26:55.692Z,42.60
2022-09-20T13:29:39.721Z,42.50
2022-09-20T13:32:29.597Z,43.90
2022-09-20T13:35:32.500Z,44.30
2022-09-20T13:38:08.772Z,44.70
2022-09-20T13:40:49.623Z,44.80
2022-09-20T13:43:36.775Z,45.30
2022-09-20T13:46:12.666Z,45.10
2022-09-20T13:48:40.734Z,45.50
2022-09-20T13:51:24.156Z,45.30
2022-09-20T13:53:51.237Z,45.10
2022-09-20T13:56:22.852Z,44.60
2022-09-20T13:58:50.976Z,44.40
2022-09-20T14:01:33.547Z,44.10
2022-09-20T14:04:16.203Z,44.30
2022-09-20T14:06:43.606Z,44.40
2022-09-20T14:09:29.959Z,45.70
2022-09-20T14:11:58.839Z,45.00
2022-09-20T14:14:26.784Z,45.50
2022-09-20T14:16:55.133Z,45.10
2022-09-20T14:19:31.918Z,44.60
2022-09-20T14:22:03.836Z,44.10
2022-09-20T14:24:35.648Z,44.70
2022-09-20T14:27:22.563Z,44.80
2022-09-20T14:29:53.967Z,45.20
2022-09-20T14:32:20.876Z,44.00
2022-09-20T14:34:56.678Z,43.60
2022-09-20T14:37:41.749Z,44.70
2022-09-20T14:40:28.775Z,42.10
2022-09-20T14:43:00.267Z,42.20
2022-09-20T14:45:39.643Z,42.20
2022-09-20T14:48:15.298Z,41.50
2022-09-20T14:50:47.835Z,42.20
2022-09-20T14:53:29.606Z,42.80
2022-09-20T14:56:15.817Z,41.50
2022-09-20T14:59:21.262Z,41.70
2022-09-20T15:02:08.868Z,42.90
2022-09-20T15:04:38.100Z,43.70
2022-09-20T15:07:07.151Z,44.00
2022-09-20T15:09:35.234Z,44.20
2022-09-20T15:12:21.399Z,43.80
2022-09-20T15:14:48.986Z,43.70
2022-09-20T15:17:18.551Z,44.00
2022-09-20T15:19:46.461Z,45.90
2022-09-20T15:22:14.249Z,44.40
2022-09-20T15:24:41.503Z,44.70
2022-09-20T15:27:09.619Z,43.70
2022-09-20T15:29:36.378Z,44.20
2022-09-20T15:32:05.947Z,44.70
2022-09-20T15:34:32.798Z,44.80
2022-09-20T15:36:59.555Z,43.50
2022-09-20T15:39:26.327Z,42.40
2022-09-20T15:41:53.829Z,42.40
2022-09-20T15:44:20.720Z,42.80
2022-09-20T15:46:49.081Z,43.50
2022-09-20T15:49:16.035Z,43.30
2022-09-20T15:51:42.867Z,43.30
2022-09-20T15:54:13.667Z,44.10
2022-09-20T15:56:40.805Z,44.50
2022-09-20T15:59:09.613Z,44.30
2022-09-20T16:01:41.872Z,43.90
2022-09-20T16:04:12.915Z,44.10
2022-09-20T16:06:41.548Z,43.30
2022-09-20T16:09:09.104Z,43.40
2022-09-20T16:11:36.350Z,42.80
2022-09-20T16:14:03.555Z,43.30
2022-09-20T16:16:37.431Z,43.70
2022-09-20T16:19:20.691Z,43.40
2022-09-20T16:21:59.095Z,42.80
2022-09-20T16:24:28.996Z,43.70
2022-09-20T16:26:56.233Z,43.90
2022-09-20T16:29:25.189Z,43.90
2022-09-20T16:31:54.473Z,44.60
2022-09-20T16:34:29.925Z,44.90
2022-09-20T16:36:59.171Z,45.10
2022-09-20T16:39:27.827Z,45.20
2022-09-20T16:42:06.209Z,44.90
2022-09-20T16:44:38.110Z,45.90
2022-09-20T16:47:10.135Z,44.30
2022-09-20T16:49:37.989Z,44.70
2022-09-20T16:52:05.995Z,45.10
2022-09-20T16:54:33.970Z,45.90
2022-09-20T16:57:01.289Z,45.50
2022-09-20T16:59:28.133Z,45.60
2022-09-20T17:01:55.072Z,46.50
2022-09-20T17:04:21.849Z,47.40
2022-09-20T17:06:49.642Z,48.00
2022-09-20T17:09:16.674Z,48.50
2022-09-20T17:11:46.297Z,49.10
2022-09-20T17:14:14.140Z,49.00
2022-09-20T17:16:42.569Z,48.80
2022-09-20T17:19:12.308Z,49.20
2022-09-20T17:21:45.144Z,49.20
2022-09-20T17:24:13.728Z,49.30
2022-09-20T17:26:44.563Z,49.90
2022-09-20T17:29:15.326Z,50.40
2022-09-20T17:31:48.813Z,50.60
2022-09-20T17:34:21.407Z,50.90
2022-09-20T17:36:49.213Z,51.30
2022-09-20T17:39:16.783Z,51.50
2022-09-20T17:41:48.219Z,51.80
2022-09-20T17:44:15.815Z,52.00
2022-09-20T17:46:45.189Z,52.20
2022-09-20T17:49:16.754Z,52.30
2022-09-20T17:51:49.276Z,52.50
2022-09-20T17:54:16.539Z,52.70
2022-09-20T17:56:47.979Z,52.90
2022-09-20T17:59:16.293Z,53.10
2022-09-20T18:01:44.606Z,53.20
2022-09-20T18:04:12.161Z,53.00
2022-09-20T18:06:47.316Z,53.20
2022-09-20T18:09:16.480Z,53.10
2022-09-20T18:11:46.731Z,53.10
2022-09-20T18:14:13.696Z,52.90
2022-09-20T18:16:41.096Z,52.90
2022-09-20T18:19:08.524Z,53.10
2022-09-20T18:21:37.045Z,53.50
2022-09-20T18:24:08.704Z,53.80
2022-09-20T18:26:37.041Z,54.10
2022-09-20T18:29:04.879Z,54.10
2022-09-20T18:31:45.265Z,54.10
2022-09-20T18:34:15.491Z,54.30
2022-09-20T18:36:42.460Z,54.40
2022-09-20T18:39:09.265Z,54.10
2022-09-20T18:41:38.537Z,54.20
2022-09-20T18:44:07.575Z,54.30
2022-09-20T18:46:38.054Z,54.30
2022-09-20T18:49:08.287Z,54.30
2022-09-20T18:51:39.746Z,54.50
2022-09-20T18:54:09.914Z,54.60
2022-09-20T18:56:38.883Z,54.70
2022-09-20T18:59:21.800Z,54.90
2022-09-20T19:02:21.774Z,55.80
2022-09-20T19:05:24.243Z,55.30
2022-09-20T19:08:01.511Z,55.10
2022-09-20T19:10:47.028Z,54.90
2022-09-20T19:13:38.279Z,55.10
2022-09-20T19:16:17.417Z,55.20
2022-09-20T19:19:12.250Z,55.00
2022-09-20T19:21:42.331Z,55.10
2022-09-20T19:24:38.868Z,55.10
2022-09-20T19:27:05.915Z,55.20
2022-09-20T19:29:33.372Z,55.10
2022-09-20T19:32:00.930Z,55.30
2022-09-20T19:34:30.193Z,55.40
2022-09-20T19:37:27.382Z,55.40
2022-09-20T19:40:08.789Z,55.40
2022-09-20T19:42:36.214Z,55.30
2022-09-20T19:45:40.548Z,55.20
2022-09-20T19:48:20.785Z,55.30
2022-09-20T19:50:53.017Z,55.50
2022-09-20T19:53:22.426Z,55.50
2022-09-20T19:55:56.898Z,55.60
2022-09-20T19:58:23.961Z,55.60
2022-09-20T20:00:51.134Z,55.70
2022-09-20T20:03:18.877Z,55.60
2022-09-20T20:06:08.839Z,55.50
2022-09-20T20:08:48.739Z,55.60
2022-09-20T20:11:24.605Z,55.40
2022-09-20T20:14:03.525Z,55.50
2022-09-20T20:16:35.540Z,55.50
2022-09-20T20:19:20.680Z,55.50
2022-09-20T20:22:09.495Z,55.50
2022-09-20T20:24:45.359Z,55.70
2022-09-20T20:27:12.539Z,55.50
2022-09-20T20:29:39.345Z,55.50
2022-09-20T20:32:06.080Z,55.50
2022-09-20T20:34:33.264Z,55.70
2022-09-20T20:37:02.703Z,55.80
2022-09-20T20:39:31.545Z,55.80
2022-09-20T20:42:02.891Z,55.60
2022-09-20T20:44:36.672Z,55.70
2022-09-20T20:47:05.878Z,55.70
2022-09-20T20:49:33.131Z,55.80
2022-09-20T20:52:04.913Z,55.90
2022-09-20T20:54:32.446Z,55.90
2022-09-20T20:56:59.502Z,56.00
2022-09-20T20:59:26.795Z,56.10
2022-09-20T21:01:53.991Z,56.20
2022-09-20T21:04:21.731Z,56.40
2022-09-20T21:06:50.058Z,56.50
2022-09-20T21:09:17.034Z,56.50
2022-09-20T21:11:44.346Z,56.40
2022-09-20T21:14:12.563Z,56.40
2022-09-20T21:16:45.771Z,56.40
2022-09-20T21:19:16.914Z,56.50
2022-09-20T21:21:45.955Z,56.50
2022-09-20T21:24:17.094Z,56.40
2022-09-20T21:26:44.452Z,56.50
2022-09-20T21:29:12.623Z,56.50
2022-09-20T21:31:41.744Z,56.50
2022-09-20T21:34:10.476Z,56.40
2022-09-20T21:36:38.694Z,56.40
2022-09-20T21:39:06.330Z,56.40
2022-09-20T21:41:35.705Z,56.40
2022-09-20T21:44:04.301Z,56.40
2022-09-20T21:46:40.335Z,56.50
2022-09-20T21:49:09.322Z,56.50
2022-09-20T21:51:37.073Z,56.50
2022-09-20T21:54:04.978Z,56.50
2022-09-20T21:56:34.503Z,56.50
2022-09-20T21:59:03.920Z,56.50
2022-09-20T22:01:34.988Z,56.50
2022-09-20T22:04:09.769Z,56.50
2022-09-20T22:06:42.556Z,57.00
2022-09-20T22:09:11.779Z,56.60
2022-09-20T22:11:41.084Z,56.60
2022-09-20T22:14:09.509Z,56.70
2022-09-20T22:16:38.784Z,56.60
2022-09-20T22:19:07.852Z,56.70
2022-09-20T22:21:39.002Z,56.70
2022-09-20T22:24:08.667Z,56.80
2022-09-20T22:26:44.330Z,56.90
2022-09-20T22:29:11.804Z,57.00
2022-09-20T22:31:47.111Z,56.90
2022-09-20T22:34:16.951Z,56.90
2022-09-20T22:36:44.900Z,56.80
2022-09-20T22:39:13.044Z,56.80
2022-09-20T22:41:41.503Z,56.80
2022-09-20T22:44:09.101Z,56.70
2022-09-20T22:46:37.162Z,56.80
2022-09-20T22:49:08.580Z,56.80
2022-09-20T22:51:36.600Z,56.80
2022-09-20T22:54:09.399Z,56.90
2022-09-20T22:56:37.122Z,56.70
2022-09-20T22:59:06.612Z,56.90
2022-09-20T23:01:36.452Z,56.90
2022-09-20T23:04:06.302Z,56.90
2022-09-20T23:06:36.873Z,56.80
2022-09-20T23:09:06.404Z,56.90
2022-09-20T23:11:33.740Z,57.70
2022-09-20T23:14:04.879Z,57.00
2022-09-20T23:16:36.938Z,57.10
2022-09-20T23:19:06.329Z,57.30
2022-09-20T23:21:34.485Z,57.30
2022-09-20T23:24:03.507Z,57.30
2022-09-20T23:26:32.361Z,57.40
2022-09-20T23:29:08.048Z,57.30
2022-09-20T23:31:37.212Z,58.20
2022-09-20T23:34:06.662Z,57.30
2022-09-20T23:36:39.045Z,57.20
2022-09-20T23:39:08.084Z,57.20
2022-09-20T23:41:36.801Z,57.20
2022-09-20T23:44:06.799Z,57.40
2022-09-20T23:46:34.115Z,57.40
2022-09-20T23:49:01.505Z,57.50
2022-09-20T23:51:29.535Z,57.40
2022-09-20T23:53:57.104Z,57.30
2022-09-20T23:56:24.535Z,57.20
2022-09-20T23:58:51.664Z,57.30
